Time;durP1;ratioP1;P1;durP2;ratioP2;P2;SDS_P1;SDS_P2;PMS_P1;PMS_P2;Temp;Humidity;BMP_temperature;BMP_pressure;BME280_temperature;BME280_humidity;BME280_pressure;Samples;Min_cycle;Max_cycle;Signal;HPM_P1;HPM_P2
2023/10/16 00:00:40;;;;;;;5.13;2.55;;;5.20;99.90;;;;;;5011503;28;20033;-47
2023/10/16 00:03:06;;;;;;;7.03;2.17;;;5.00;99.90;;;;;;5011480;28;20026;-47
2023/10/16 00:05:45;;;;;;;2.33;2.03;;;5.20;99.90;;;;;;5011094;28;20485;-51
2023/10/16 00:08:16;;;;;;;3.25;2.65;;;5.10;99.90;;;;;;5011298;28;20036;-49
2023/10/16 00:10:43;;;;;;;5.15;2.33;;;5.10;99.90;;;;;;5011474;28;20321;-45
2023/10/16 00:13:11;;;;;;;5.28;2.30;;;5.10;99.90;;;;;;5010182;28;20032;-48
2023/10/16 00:15:49;;;;;;;4.88;2.60;;;5.00;99.90;;;;;;5011318;28;20026;-47
2023/10/16 00:18:18;;;;;;;2.03;1.88;;;5.00;99.90;;;;;;5013133;28;20037;-47
2023/10/16 00:20:44;;;;;;;4.38;2.17;;;5.00;99.90;;;;;;5014534;28;20022;-47
2023/10/16 00:23:10;;;;;;;2.83;2.25;;;4.90;99.90;;;;;;5014992;28;20040;-48
2023/10/16 00:25:40;;;;;;;2.22;1.95;;;4.90;99.90;;;;;;5015046;28;20018;-48
2023/10/16 00:28:09;;;;;;;5.95;2.10;;;4.90;99.90;;;;;;5014728;28;20081;-48
2023/10/16 00:30:36;;;;;;;4.18;2.42;;;4.80;99.90;;;;;;5015024;28;20026;-51
2023/10/16 00:33:04;;;;;;;2.33;2.13;;;4.80;99.90;;;;;;5014829;28;20034;-47
2023/10/16 00:35:30;;;;;;;2.97;2.47;;;5.00;99.90;;;;;;5014798;28;20053;-46
2023/10/16 00:37:56;;;;;;;2.85;2.60;;;5.00;99.90;;;;;;5014814;28;20053;-47
2023/10/16 00:40:35;;;;;;;3.33;2.72;;;5.00;99.90;;;;;;5014922;28;20026;-51
2023/10/16 00:43:20;;;;;;;2.85;2.30;;;4.90;99.90;;;;;;5014651;28;20129;-48
2023/10/16 00:45:50;;;;;;;3.90;2.38;;;4.90;99.90;;;;;;5014492;28;20036;-50
2023/10/16 00:48:16;;;;;;;3.15;2.60;;;4.80;99.90;;;;;;5014288;28;20371;-47
2023/10/16 00:50:48;;;;;;;5.68;2.90;;;4.70;99.90;;;;;;5014560;28;20034;-47
2023/10/16 00:53:18;;;;;;;4.00;2.10;;;4.70;99.90;;;;;;5014263;28;20030;-51
2023/10/16 00:55:44;;;;;;;3.75;2.58;;;4.60;99.90;;;;;;5014754;28;20064;-46
2023/10/16 00:58:09;;;;;;;4.82;1.90;;;4.60;99.90;;;;;;5012783;28;20493;-52
2023/10/16 01:00:37;;;;;;;4.00;2.00;;;4.50;99.90;;;;;;5014466;28;20497;-48
2023/10/16 01:03:04;;;;;;;3.63;2.10;;;4.50;99.90;;;;;;5014273;28;20036;-49
2023/10/16 01:05:33;;;;;;;3.50;2.47;;;4.50;99.90;;;;;;5014257;28;20452;-48
2023/10/16 01:08:02;;;;;;;6.30;2.95;;;4.50;99.90;;;;;;5014240;28;20028;-47
2023/10/16 01:10:32;;;;;;;3.88;2.75;;;4.50;99.90;;;;;;5014874;28;20101;-46
2023/10/16 01:12:58;;;;;;;3.17;2.70;;;4.50;99.90;;;;;;5014807;28;20018;-47
2023/10/16 01:15:25;;;;;;;7.57;3.10;;;4.60;99.90;;;;;;5012908;28;20037;-48
2023/10/16 01:17:50;;;;;;;3.08;2.75;;;4.60;99.90;;;;;;5013934;28;20033;-48
2023/10/16 01:20:18;;;;;;;4.97;3.05;;;4.60;99.90;;;;;;5013956;28;20425;-46
2023/10/16 01:22:52;;;;;;;4.03;3.28;;;4.60;99.90;;;;;;5013872;28;20053;-47
2023/10/16 01:25:18;;;;;;;4.88;2.67;;;4.50;99.90;;;;;;5013729;28;20486;-47
2023/10/16 01:27:43;;;;;;;4.03;2.30;;;4.50;99.90;;;;;;5012268;28;20037;-47
2023/10/16 01:30:10;;;;;;;3.22;2.08;;;4.40;99.90;;;;;;5013302;28;20026;-47
2023/10/16 01:32:38;;;;;;;4.28;2.67;;;4.40;99.90;;;;;;5013791;28;20030;-47
2023/10/16 01:35:08;;;;;;;3.55;2.78;;;4.30;99.90;;;;;;5013801;28;20030;-48
2023/10/16 01:37:38;;;;;;;2.13;2.03;;;4.30;99.90;;;;;;5013892;28;20109;-51
2023/10/16 01:40:21;;;;;;;3.60;2.60;;;4.20;99.90;;;;;;5013986;28;20031;-46
2023/10/16 01:42:48;;;;;;;3.53;2.42;;;4.30;99.90;;;;;;5013382;28;20401;-49
2023/10/16 01:45:13;;;;;;;3.97;2.67;;;4.30;99.90;;;;;;5013595;28;20025;-50
2023/10/16 01:47:39;;;;;;;4.07;3.17;;;4.30;99.90;;;;;;5013312;28;20448;-46
2023/10/16 01:50:05;;;;;;;4.75;2.78;;;4.30;99.90;;;;;;5013776;28;20026;-45
2023/10/16 01:52:33;;;;;;;3.20;2.90;;;4.30;99.90;;;;;;5013465;28;20149;-48
2023/10/16 01:54:59;;;;;;;3.05;2.50;;;4.40;99.90;;;;;;5013409;28;20025;-47
2023/10/16 01:57:25;;;;;;;2.72;2.53;;;4.30;99.90;;;;;;5012791;28;20026;-46
2023/10/16 01:59:51;;;;;;;3.38;2.67;;;4.20;99.90;;;;;;5013434;28;20037;-47
2023/10/16 02:02:18;;;;;;;3.55;2.67;;;4.10;99.90;;;;;;5013180;28;20030;-48
2023/10/16 02:04:43;;;;;;;4.78;2.47;;;4.10;99.90;;;;;;5013271;28;20022;-46
2023/10/16 02:07:10;;;;;;;14.63;3.42;;;4.10;99.90;;;;;;5012780;28;20030;-49
2023/10/16 02:09:38;;;;;;;8.00;2.88;;;4.10;99.90;;;;;;5013115;28;20018;-47
2023/10/16 02:12:10;;;;;;;4.03;3.10;;;4.20;99.90;;;;;;5013232;28;20450;-49
2023/10/16 02:14:41;;;;;;;3.88;3.28;;;4.10;99.90;;;;;;5013335;28;20426;-48
2023/10/16 02:17:18;;;;;;;5.45;2.97;;;;;;;;;;5013156;28;20084;-47
2023/10/16 02:19:44;;;;;;;9.77;3.65;;;3.80;99.90;;;;;;5013102;28;20041;-46
2023/10/16 02:22:11;;;;;;;4.82;3.20;;;3.80;99.90;;;;;;5012736;28;20076;-47
2023/10/16 02:24:37;;;;;;;5.40;3.22;;;3.80;99.90;;;;;;5012925;28;20398;-51
2023/10/16 02:27:07;;;;;;;8.07;3.78;;;3.90;99.90;;;;;;5012657;28;20030;-49
2023/10/16 02:29:33;;;;;;;6.65;3.90;;;3.90;99.90;;;;;;5013080;28;20018;-48
2023/10/16 02:31:58;;;;;;;5.20;3.83;;;4.00;99.90;;;;;;5012995;28;20038;-49
2023/10/16 02:34:24;;;;;;;6.45;3.78;;;4.00;99.90;;;;;;5012481;28;20474;-46
2023/10/16 02:36:54;;;;;;;5.57;3.88;;;4.00;99.90;;;;;;5012352;28;20030;-45
2023/10/16 02:39:35;;;;;;;6.35;3.08;;;4.00;99.90;;;;;;5012693;28;20018;-47
2023/10/16 02:42:12;;;;;;;3.70;2.75;;;4.00;99.90;;;;;;5011472;28;20021;-47
2023/10/16 02:44:47;;;;;;;3.70;2.90;;;4.00;99.90;;;;;;5012477;28;20080;-49
2023/10/16 02:47:17;;;;;;;4.90;3.33;;;3.90;99.90;;;;;;5012169;28;20021;-48
2023/10/16 02:49:47;;;;;;;3.08;2.75;;;3.80;99.90;;;;;;5012365;28;20409;-46
2023/10/16 02:52:16;;;;;;;3.97;2.60;;;3.70;99.90;;;;;;5012331;28;20028;-46
2023/10/16 02:54:41;;;;;;;4.70;2.85;;;3.70;99.90;;;;;;5012676;28;20032;-46
2023/10/16 02:57:07;;;;;;;6.57;3.80;;;3.70;99.90;;;;;;5012000;28;20105;-47
2023/10/16 02:59:33;;;;;;;4.72;3.53;;;3.70;99.90;;;;;;5012057;28;20511;-46
2023/10/16 03:01:59;;;;;;;4.07;2.78;;;3.70;99.90;;;;;;5012105;28;20113;-50
2023/10/16 03:04:27;;;;;;;4.68;3.70;;;3.70;99.90;;;;;;5011790;28;20105;-48
2023/10/16 03:06:54;;;;;;;5.63;3.13;;;3.60;99.90;;;;;;5011619;28;20018;-48
2023/10/16 03:09:26;;;;;;;5.03;2.85;;;3.60;99.90;;;;;;5012138;28;20022;-50
2023/10/16 03:15:38;;;;;;;4.55;3.28;;;3.90;99.90;;;;;;4979009;28;20130;-54
2023/10/16 03:17:39;;;;;;;4.32;2.75;;;3.60;99.90;;;;;;4991250;28;20473;-50
2023/10/16 03:20:19;;;;;;;3.17;2.13;;;3.60;99.90;;;;;;4992300;28;20046;-51
2023/10/16 03:22:46;;;;;;;3.58;3.15;;;3.60;99.90;;;;;;4984287;28;20062;-51
2023/10/16 03:25:27;;;;;;;8.40;3.22;;;3.60;99.90;;;;;;4972711;28;20391;-49
2023/10/16 03:27:57;;;;;;;3.38;2.72;;;3.60;99.90;;;;;;4971153;28;20027;-46
2023/10/16 03:30:27;;;;;;;3.00;2.65;;;3.60;99.90;;;;;;4972721;28;20495;-46
2023/10/16 03:32:53;;;;;;;4.43;2.63;;;3.60;99.90;;;;;;4972401;28;20038;-46
2023/10/16 03:35:26;;;;;;;3.28;3.05;;;3.60;99.90;;;;;;4972317;28;20051;-49
2023/10/16 03:37:53;;;;;;;4.00;3.15;;;3.50;99.90;;;;;;4972413;28;20453;-50
2023/10/16 03:40:19;;;;;;;7.40;2.55;;;3.50;99.90;;;;;;4972457;28;20089;-48
2023/10/16 03:42:45;;;;;;;4.72;3.33;;;3.50;99.90;;;;;;4972451;28;20524;-48
2023/10/16 03:45:13;;;;;;;5.10;3.20;;;3.50;99.90;;;;;;4972508;28;20071;-50
2023/10/16 03:47:39;;;;;;;3.03;2.72;;;3.50;99.90;;;;;;4972295;28;20034;-50
2023/10/16 03:50:06;;;;;;;4.38;2.83;;;3.50;99.90;;;;;;4971162;28;20027;-49
2023/10/16 03:52:32;;;;;;;4.45;3.20;;;3.40;99.90;;;;;;4988327;28;20409;-51
2023/10/16 03:55:10;;;;;;;6.32;2.70;;;3.40;99.90;;;;;;4976427;28;20120;-49
2023/10/16 03:57:39;;;;;;;3.28;2.97;;;3.40;99.90;;;;;;4976548;28;20390;-46
2023/10/16 04:00:14;;;;;;;3.97;3.10;;;3.40;99.90;;;;;;4976685;28;20025;-49
2023/10/16 04:02:41;;;;;;;3.10;2.55;;;3.40;99.90;;;;;;4976494;28;20047;-50
2023/10/16 04:05:27;;;;;;;4.65;2.78;;;3.40;99.90;;;;;;4976585;28;20029;-48
2023/10/16 04:07:53;;;;;;;5.65;2.75;;;3.40;99.90;;;;;;4975502;28;20402;-46
2023/10/16 04:10:27;;;;;;;9.00;3.20;;;3.30;99.90;;;;;;4976377;28;20022;-49
2023/10/16 04:12:53;;;;;;;4.33;2.97;;;3.40;99.90;;;;;;4975964;28;20035;-51
2023/10/16 04:15:34;;;;;;;5.60;3.00;;;3.40;99.90;;;;;;4991144;28;20122;-52
2023/10/16 04:18:04;;;;;;;6.97;3.05;;;3.40;99.90;;;;;;4974552;28;20405;-53
2023/10/16 04:20:43;;;;;;;4.25;2.55;;;3.40;99.90;;;;;;4975979;28;20458;-51
2023/10/16 04:23:29;;;;;;;3.05;2.75;;;3.40;99.90;;;;;;4975986;28;20086;-53
2023/10/16 04:34:31;;;;;;;4.03;3.20;;;3.40;99.90;;;;;;4975669;28;20029;-53
2023/10/16 05:00:56;;;;;;;10.30;5.03;;;3.10;99.90;;;;;;4975469;28;20034;-51
2023/10/16 05:03:23;;;;;;;7.68;4.50;;;3.10;99.90;;;;;;4974520;28;20066;-52
2023/10/16 05:05:56;;;;;;;6.63;5.10;;;3.10;99.90;;;;;;4974331;28;20027;-55
2023/10/16 05:11:27;;;;;;;6.07;3.97;;;3.10;99.90;;;;;;4975332;28;20151;-48
2023/10/16 05:14:19;;;;;;;5.85;3.42;;;3.10;99.90;;;;;;4974550;28;20109;-51
2023/10/16 06:14:16;;;;;;;12.25;6.32;;;3.20;99.90;;;;;;4973669;28;20201;-47
2023/10/16 06:16:46;;;;;;;13.48;7.80;;;3.30;99.90;;;;;;4973632;28;20401;-47
2023/10/16 06:19:17;;;;;;;13.77;7.20;;;3.50;99.90;;;;;;4973940;28;20027;-48
2023/10/16 06:21:46;;;;;;;9.82;6.60;;;3.70;99.90;;;;;;4988739;28;20035;-47
2023/10/16 06:24:38;;;;;;;9.63;5.80;;;3.90;99.90;;;;;;4973581;28;20027;-48
2023/10/16 06:27:12;;;;;;;11.88;6.57;;;4.10;99.90;;;;;;4971881;28;20505;-46
2023/10/16 06:29:51;;;;;;;9.00;6.32;;;4.50;99.90;;;;;;4973788;28;20051;-47
2023/10/16 06:32:22;;;;;;;11.23;5.75;;;4.80;99.90;;;;;;4973447;28;20023;-49
2023/10/16 06:34:49;;;;;;;10.60;6.30;;;5.20;99.90;;;;;;4988544;28;20027;-47
2023/10/16 06:37:19;;;;;;;14.48;5.13;;;5.60;99.90;;;;;;4973529;28;20371;-49
2023/10/16 06:39:49;;;;;;;6.13;4.68;;;5.80;99.90;;;;;;4973535;28;20109;-47
2023/10/16 06:42:18;;;;;;;9.45;5.93;;;6.10;99.90;;;;;;4973474;28;20023;-48
2023/10/16 06:44:50;;;;;;;7.35;5.00;;;6.10;99.90;;;;;;4972344;28;20026;-51
2023/10/16 06:47:16;;;;;;;8.70;5.00;;;6.30;99.90;;;;;;4972456;28;20089;-48
2023/10/16 06:49:42;;;;;;;8.55;5.15;;;6.50;99.90;;;;;;4973711;28;20499;-47
2023/10/16 06:52:17;;;;;;;12.60;5.20;;;6.70;99.90;;;;;;4973731;28;20139;-47
2023/10/16 06:54:44;;;;;;;10.57;5.40;;;6.90;99.90;;;;;;4973141;28;20390;-47
2023/10/16 06:57:13;;;;;;;9.05;3.88;;;7.10;99.90;;;;;;4973108;28;20262;-50
2023/10/16 06:59:39;;;;;;;10.15;3.45;;;7.10;99.90;;;;;;4973424;28;20074;-49
2023/10/16 07:02:06;;;;;;;4.68;3.22;;;7.20;99.90;;;;;;4971541;28;20427;-52
2023/10/16 07:04:32;;;;;;;15.55;4.05;;;7.20;99.90;;;;;;4972863;28;20023;-51
2023/10/16 07:06:58;;;;;;;7.20;4.45;;;7.20;99.90;;;;;;4972788;28;20034;-48
2023/10/16 07:09:38;;;;;;;8.55;4.13;;;7.40;99.90;;;;;;4972957;28;20448;-48
2023/10/16 07:12:04;;;;;;;6.38;3.38;;;7.60;99.90;;;;;;4971556;28;20122;-55
2023/10/16 07:14:30;;;;;;;7.68;4.40;;;7.40;99.90;;;;;;4971990;28;20023;-48
2023/10/16 07:16:58;;;;;;;4.93;3.70;;;7.00;99.90;;;;;;4972922;28;20085;-49
2023/10/16 07:19:25;;;;;;;5.95;4.03;;;6.70;99.90;;;;;;4987910;28;20150;-50
2023/10/16 07:21:51;;;;;;;6.38;4.00;;;6.40;99.90;;;;;;4972916;28;20029;-47
2023/10/16 07:24:16;;;;;;;5.68;4.03;;;6.30;99.90;;;;;;4972506;28;20034;-50
2023/10/16 07:26:44;;;;;;;7.88;4.85;;;6.30;99.90;;;;;;4971303;28;20618;-47
2023/10/16 07:29:12;;;;;;;10.30;5.35;;;6.00;99.90;;;;;;4972301;28;20019;-50
2023/10/16 07:31:37;;;;;;;6.22;4.45;;;6.00;99.90;;;;;;4972796;28;20393;-49
2023/10/16 07:34:04;;;;;;;8.70;4.68;;;6.00;99.90;;;;;;4987374;28;20030;-48
2023/10/16 07:36:30;;;;;;;5.28;4.38;;;6.20;99.90;;;;;;4972579;28;20027;-48
2023/10/16 07:38:56;;;;;;;7.03;5.18;;;6.20;99.90;;;;;;4971986;28;20093;-51
2023/10/16 07:41:23;;;;;;;6.78;4.85;;;6.20;99.90;;;;;;4971786;28;20487;-49
2023/10/16 07:43:56;;;;;;;7.30;4.47;;;6.40;99.90;;;;;;4967795;28;20022;-50
2023/10/16 07:46:28;;;;;;;9.05;4.70;;;6.40;99.90;;;;;;4972118;28;20031;-52
2023/10/16 07:48:54;;;;;;;25.95;17.13;;;6.40;99.90;;;;;;4972904;28;20448;-48
2023/10/16 07:51:21;;;;;;;26.02;16.25;;;6.40;99.90;;;;;;4972759;28;20105;-48
2023/10/16 07:53:48;;;;;;;10.10;5.50;;;6.50;99.90;;;;;;4972091;28;20027;-47
2023/10/16 07:58:56;;;;;;;9.57;5.60;;;6.60;99.90;;;;;;4972527;28;20526;-50
2023/10/16 08:04:27;;;;;;;13.27;5.50;;;6.50;99.90;;;;;;4972233;28;20029;-48
2023/10/16 08:06:56;;;;;;;;;;;6.50;99.90;;;;;;4972853;28;20375;-48
2023/10/16 08:11:58;;;;;;;9.88;7.13;;;6.60;99.90;;;;;;4972233;28;20506;-48
2023/10/16 08:14:24;;;;;;;14.07;8.63;;;6.40;99.90;;;;;;4971016;28;20042;-50
2023/10/16 08:16:58;;;;;;;14.65;8.27;;;6.50;99.90;;;;;;4972228;28;20031;-48
2023/10/16 08:19:31;;;;;;;9.35;7.95;;;6.60;99.90;;;;;;4972466;28;20491;-48
2023/10/16 08:21:58;;;;;;;19.95;9.35;;;6.80;99.90;;;;;;4972334;28;20111;-50
2023/10/16 08:24:24;;;;;;;12.30;8.05;;;6.80;99.90;;;;;;4971307;28;20085;-52
2023/10/16 08:26:51;;;;;;;13.88;8.85;;;6.90;99.90;;;;;;4971910;28;20114;-52
2023/10/16 08:31:45;;;;;;;13.30;8.15;;;7.10;99.90;;;;;;4971965;28;20058;-53
2023/10/16 08:34:21;;;;;;;12.57;8.70;;;7.20;99.90;;;;;;4971885;28;20023;-47
2023/10/16 08:36:50;;;;;;;10.05;7.65;;;7.30;99.90;;;;;;4970800;28;20022;-47
2023/10/16 08:39:17;;;;;;;17.05;8.88;;;7.40;99.90;;;;;;4968949;28;20027;-48
2023/10/16 08:41:42;;;;;;;11.23;8.30;;;7.30;99.90;;;;;;4973188;28;20031;-52
2023/10/16 08:44:18;;;;;;;21.90;10.98;;;7.30;99.90;;;;;;4974674;28;20074;-48
2023/10/16 08:46:53;;;;;;;16.58;9.10;;;7.20;99.90;;;;;;4974792;28;20034;-54
2023/10/16 08:49:23;;;;;;;21.15;9.48;;;7.30;99.90;;;;;;4975545;28;20085;-49
2023/10/16 08:51:54;;;;;;;10.13;8.35;;;7.40;99.90;;;;;;4974033;28;20422;-50
2023/10/16 08:57:07;;;;;;;14.43;8.52;;;7.50;99.90;;;;;;4975319;28;20062;-50
2023/10/16 08:59:35;;;;;;;12.85;9.85;;;7.40;99.90;;;;;;4975455;28;20390;-51
2023/10/16 09:02:05;;;;;;;13.32;8.57;;;7.50;99.90;;;;;;4974911;28;20027;-53
2023/10/16 09:04:30;;;;;;;11.48;7.65;;;7.70;99.90;;;;;;4974711;28;20085;-48
2023/10/16 09:06:57;;;;;;;11.40;7.55;;;8.40;99.90;;;;;;4974659;28;20030;-50
2023/10/16 09:09:25;;;;;;;11.35;7.03;;;9.50;99.90;;;;;;4975291;28;20031;-50
2023/10/16 09:11:57;;;;;;;9.57;6.63;;;10.80;99.90;;;;;;4974877;28;20023;-51
2023/10/16 09:14:26;;;;;;;9.50;6.85;;;11.70;99.90;;;;;;4989369;28;20089;-51
2023/10/16 09:16:55;;;;;;;12.02;6.45;;;12.70;99.90;;;;;;4974974;28;20491;-51
2023/10/16 09:19:34;;;;;;;11.07;5.45;;;12.80;99.90;;;;;;4975053;28;20027;-50
2023/10/16 09:22:08;;;;;;;11.70;6.38;;;13.40;99.90;;;;;;4973550;28;20031;-49
2023/10/16 09:24:35;;;;;;;58.75;36.20;;;13.90;99.90;;;;;;4998713;28;20447;-52
2023/10/16 09:27:11;;;;;;;21.52;13.52;;;14.20;99.90;;;;;;4975166;28;20475;-48
2023/10/16 09:29:36;;;;;;;38.40;19.77;;;14.50;99.90;;;;;;4972020;28;20375;-47
2023/10/16 09:32:06;;;;;;;9.82;5.90;;;14.80;99.90;;;;;;4974773;28;20165;-48
2023/10/16 09:34:34;;;;;;;10.43;6.75;;;14.50;99.90;;;;;;4974580;28;20049;-49
2023/10/16 09:37:15;;;;;;;8.98;5.68;;;14.40;99.90;;;;;;4974742;28;20126;-46
2023/10/16 09:39:40;;;;;;;10.52;6.15;;;14.60;99.90;;;;;;4974474;28;20062;-50
2023/10/16 09:42:15;;;;;;;7.43;6.05;;;15.00;99.90;;;;;;4974248;28;20113;-47
2023/10/16 09:44:44;;;;;;;7.20;5.23;;;15.30;99.90;;;;;;4974618;28;20246;-46
2023/10/16 09:47:25;;;;;;;9.30;5.13;;;15.10;99.90;;;;;;4965522;28;20019;-45
2023/10/16 09:49:55;;;;;;;11.02;5.55;;;14.40;99.90;;;;;;4955295;28;20427;-51
2023/10/16 09:52:22;;;;;;;8.88;5.90;;;14.20;99.90;;;;;;4954779;29;20031;-51
2023/10/16 09:54:51;;;;;;;12.32;6.22;;;13.70;99.90;;;;;;4954735;28;20027;-49
2023/10/16 09:57:27;;;;;;;8.15;6.50;;;13.30;99.90;;;;;;4954344;28;20035;-47
2023/10/16 10:00:00;;;;;;;13.32;6.38;;;13.10;99.90;;;;;;4971433;28;20042;-49
2023/10/16 10:02:35;;;;;;;10.02;5.88;;;12.90;99.90;;;;;;4973882;28;20027;-49
2023/10/16 10:05:09;;;;;;;7.45;5.35;;;12.80;99.90;;;;;;4974589;28;20030;-46
2023/10/16 10:07:47;;;;;;;13.18;5.88;;;12.90;99.90;;;;;;4961729;28;20031;-48
2023/10/16 10:13:15;;;;;;;9.20;4.50;;;12.90;99.90;;;;;;4954841;29;20039;-49
2023/10/16 10:15:48;;;;;;;7.40;4.97;;;13.00;99.90;;;;;;4965423;28;20134;-47
2023/10/16 10:18:42;;;;;;;10.15;5.15;;;13.40;99.90;;;;;;4973452;28;20546;-46
2023/10/16 10:21:18;;;;;;;8.95;5.80;;;13.60;99.90;;;;;;4974121;28;20027;-49
2023/10/16 10:23:48;;;;;;;7.53;5.43;;;13.30;99.90;;;;;;4972203;28;20069;-45
2023/10/16 10:26:20;;;;;;;8.02;4.65;;;13.10;99.90;;;;;;4973717;28;20026;-47
2023/10/16 10:29:04;;;;;;;7.68;4.55;;;13.10;99.90;;;;;;4973233;28;20115;-46
2023/10/16 10:31:31;;;;;;;5.03;4.28;;;13.20;99.90;;;;;;4973579;28;20486;-47
2023/10/16 10:33:58;;;;;;;8.43;5.20;;;13.00;99.90;;;;;;4973403;28;20023;-46
2023/10/16 10:36:34;;;;;;;10.55;4.63;;;13.10;99.90;;;;;;4973752;28;20026;-47
2023/10/16 10:39:21;;;;;;;8.65;5.25;;;13.00;99.90;;;;;;4973294;28;20158;-47
2023/10/16 10:41:55;;;;;;;6.10;5.07;;;12.50;99.90;;;;;;4964231;28;20054;-47
2023/10/16 10:44:44;;;;;;;7.35;4.43;;;12.60;99.90;;;;;;4973128;28;20019;-47
2023/10/16 10:47:24;;;;;;;6.45;4.78;;;12.60;99.90;;;;;;4973336;28;20019;-49
2023/10/16 10:49:51;;;;;;;6.10;5.13;;;12.50;99.90;;;;;;4973390;28;20022;-48
2023/10/16 10:52:20;;;;;;;7.93;4.53;;;12.40;99.90;;;;;;4955771;28;20023;-52
2023/10/16 10:54:57;;;;;;;11.52;7.38;;;12.00;99.90;;;;;;4973025;28;20035;-46
2023/10/16 10:57:24;;;;;;;44.35;21.83;;;11.80;99.90;;;;;;4973310;28;20431;-49
2023/10/16 11:00:25;;;;;;;7.93;5.03;;;11.90;99.90;;;;;;4973263;28;20561;-48
2023/10/16 11:05:31;;;;;;;9.43;4.47;;;11.70;99.90;;;;;;4940933;28;20101;-49
2023/10/16 11:10:46;;;;;;;9.10;4.30;;;11.50;99.90;;;;;;4973292;28;20109;-48
2023/10/16 11:13:13;;;;;;;;;;;11.30;99.90;;;;;;4971934;28;20162;-45
2023/10/16 11:15:46;;;;;;;7.15;4.63;;;11.30;99.90;;;;;;4972756;28;19997;-49
2023/10/16 11:18:13;;;;;;;7.63;4.85;;;11.40;99.90;;;;;;4971826;28;20115;-48
2023/10/16 11:20:39;;;;;;;8.95;6.47;;;11.30;99.90;;;;;;4953793;28;20066;-53
2023/10/16 11:23:12;;;;;;;7.38;4.85;;;11.20;99.90;;;;;;4960043;28;20109;-49
2023/10/16 11:25:40;;;;;;;4.82;4.05;;;11.20;99.90;;;;;;4971675;28;20487;-48
2023/10/16 11:28:08;;;;;;;7.75;4.80;;;11.20;99.90;;;;;;4972387;28;20027;-53
2023/10/16 11:30:38;;;;;;;9.45;3.42;;;11.20;99.90;;;;;;4972764;28;20015;-46
2023/10/16 11:33:08;;;;;;;5.28;3.25;;;11.20;99.90;;;;;;4971088;28;20077;-50
2023/10/16 11:35:35;;;;;;;7.15;3.28;;;11.20;99.90;;;;;;4972697;28;20023;-48
2023/10/16 11:38:12;;;;;;;4.75;4.07;;;11.10;99.90;;;;;;4972464;28;20030;-49
2023/10/16 11:40:42;;;;;;;5.32;3.05;;;11.10;99.90;;;;;;4972486;28;20124;-52
2023/10/16 11:43:11;;;;;;;11.02;3.40;;;11.00;99.90;;;;;;4971464;28;20150;-53
2023/10/16 11:45:38;;;;;;;6.78;3.40;;;11.00;99.90;;;;;;4971761;28;20074;-48
2023/10/16 11:50:58;;;;;;;8.73;2.70;;;10.90;99.90;;;;;;4972337;28;20023;-48
2023/10/16 11:53:23;;;;;;;4.60;2.70;;;10.90;99.90;;;;;;4972157;28;20075;-49
2023/10/16 11:55:52;;;;;;;7.72;2.78;;;10.90;99.90;;;;;;4972804;28;20058;-47
2023/10/16 11:58:18;;;;;;;4.78;3.08;;;11.00;99.90;;;;;;4972587;28;20407;-48
2023/10/16 12:00:54;;;;;;;5.47;2.85;;;10.90;99.90;;;;;;4972249;28;20042;-47
2023/10/16 12:03:23;;;;;;;6.82;3.10;;;10.90;99.90;;;;;;4971578;28;20030;-50
2023/10/16 12:05:50;;;;;;;6.57;2.70;;;10.90;99.90;;;;;;4972250;28;20482;-48
2023/10/16 12:08:18;;;;;;;4.80;2.20;;;11.00;99.90;;;;;;4971768;28;20034;-51
2023/10/16 12:10:46;;;;;;;3.47;2.03;;;11.00;99.90;;;;;;4972655;28;20019;-50
2023/10/16 12:13:13;;;;;;;5.32;1.73;;;11.10;99.90;;;;;;4972682;28;20522;-52
2023/10/16 12:15:40;;;;;;;5.78;2.42;;;11.10;99.90;;;;;;4976550;28;20030;-47
2023/10/16 12:18:09;;;;;;;6.30;2.70;;;11.20;99.90;;;;;;4976060;28;20101;-48
2023/10/16 12:20:38;;;;;;;5.57;1.90;;;11.20;99.90;;;;;;4976311;28;20023;-47
2023/10/16 12:23:05;;;;;;;6.10;1.95;;;11.20;99.90;;;;;;4975971;28;20054;-50
2023/10/16 12:25:32;;;;;;;5.32;1.67;;;11.10;99.90;;;;;;4976376;28;20022;-46
2023/10/16 12:27:58;;;;;;;3.42;1.95;;;11.20;99.90;;;;;;4974433;28;20542;-49
2023/10/16 12:30:27;;;;;;;2.85;1.90;;;11.20;99.90;;;;;;4976096;28;20026;-45
2023/10/16 12:32:55;;;;;;;5.22;1.92;;;11.30;99.90;;;;;;4974237;28;20207;-45
2023/10/16 12:35:22;;;;;;;4.45;2.03;;;11.30;99.90;;;;;;4975740;28;20027;-52
2023/10/16 12:37:55;;;;;;;6.03;2.17;;;11.30;99.90;;;;;;4975666;28;20035;-50
2023/10/16 12:40:24;;;;;;;3.33;2.00;;;11.30;99.90;;;;;;4975381;28;20393;-50
2023/10/16 12:42:53;;;;;;;15.90;2.38;;;11.30;99.90;;;;;;4975146;28;20069;-49
2023/10/16 12:45:22;;;;;;;24.33;14.23;;;11.30;99.90;;;;;;4975423;28;20031;-47
2023/10/16 12:47:51;;;;;;;3.58;3.28;;;11.30;99.90;;;;;;4974877;28;20383;-48
2023/10/16 12:50:17;;;;;;;8.77;3.88;;;11.40;99.90;;;;;;4975267;28;20109;-47
2023/10/16 12:52:44;;;;;;;1.88;1.52;;;11.40;99.90;;;;;;4974970;28;20401;-46
2023/10/16 12:55:13;;;;;;;5.03;1.95;;;11.40;99.90;;;;;;4975165;28;20031;-48
2023/10/16 12:57:39;;;;;;;2.47;1.85;;;11.40;99.90;;;;;;4974598;28;20486;-43
2023/10/16 13:00:15;;;;;;;3.65;2.00;;;11.50;99.90;;;;;;4974743;28;20117;-46
2023/10/16 13:02:43;;;;;;;2.67;1.83;;;11.50;99.90;;;;;;4974599;28;20027;-46
2023/10/16 13:05:28;;;;;;;11.43;3.20;;;11.50;99.90;;;;;;4975523;28;20578;-48
2023/10/16 13:07:56;;;;;;;4.20;2.05;;;11.60;99.90;;;;;;4955972;28;20102;-46
2023/10/16 13:10:26;;;;;;;5.00;1.30;;;11.70;99.90;;;;;;4956536;29;20159;-50
2023/10/16 13:12:51;;;;;;;4.70;1.30;;;11.60;99.20;;;;;;4956033;28;20031;-46
2023/10/16 13:15:24;;;;;;;3.67;1.40;;;11.60;99.00;;;;;;4956085;29;20035;-48
2023/10/16 13:17:53;;;;;;;8.38;1.20;;;11.50;99.10;;;;;;4956100;28;20098;-46
2023/10/16 13:20:19;;;;;;;4.13;1.30;;;11.70;99.40;;;;;;4956169;29;20406;-46
2023/10/16 13:22:49;;;;;;;3.17;1.60;;;11.70;99.40;;;;;;4955850;28;20047;-46
2023/10/16 13:25:16;;;;;;;5.00;0.95;;;11.80;99.40;;;;;;4955121;28;20201;-47
2023/10/16 13:27:43;;;;;;;3.85;1.55;;;11.70;98.50;;;;;;4970538;28;20035;-45
2023/10/16 13:30:11;;;;;;;8.60;1.30;;;11.70;97.70;;;;;;4959131;28;20030;-46
2023/10/16 13:32:40;;;;;;;1.63;1.13;;;11.70;98.30;;;;;;4974676;28;20035;-45
2023/10/16 13:35:12;;;;;;;6.18;1.15;;;11.70;98.60;;;;;;4975264;28;20027;-45
2023/10/16 13:37:43;;;;;;;5.05;1.40;;;11.70;98.60;;;;;;4961383;28;20062;-44
2023/10/16 13:40:22;;;;;;;4.53;1.60;;;11.70;99.00;;;;;;4966952;28;20121;-48
2023/10/16 13:42:54;;;;;;;4.90;1.60;;;11.80;98.60;;;;;;4977079;28;20034;-47
2023/10/16 13:45:21;;;;;;;4.68;1.40;;;11.80;98.20;;;;;;4976985;28;20430;-49
2023/10/16 13:47:47;;;;;;;2.88;1.17;;;11.80;96.80;;;;;;4976241;28;20027;-47
2023/10/16 13:50:15;;;;;;;2.90;1.00;;;11.80;97.90;;;;;;4976166;28;20155;-45
2023/10/16 13:52:44;;;;;;;1.33;0.90;;;11.80;98.50;;;;;;4975623;28;20367;-47
2023/10/16 13:55:13;;;;;;;3.40;1.10;;;11.80;97.60;;;;;;4974228;28;20027;-49
2023/10/16 13:57:42;;;;;;;1.15;1.05;;;11.90;98.50;;;;;;4974021;28;20533;-48
2023/10/16 14:03:29;;;;;;;4.78;1.20;;;11.90;97.80;;;;;;4974551;28;20037;-50
2023/10/16 14:05:54;;;;;;;5.68;1.30;;;11.90;97.00;;;;;;4974557;28;20038;-47
2023/10/16 14:08:30;;;;;;;2.35;1.23;;;11.80;97.60;;;;;;4975420;28;20023;-47
2023/10/16 14:11:00;;;;;;;2.03;1.52;;;11.90;98.50;;;;;;4991083;28;20026;-45
2023/10/16 14:13:32;;;;;;;14.88;7.80;;;11.90;98.00;;;;;;4975617;28;20031;-48
2023/10/16 14:16:09;;;;;;;4.07;2.03;;;11.90;98.20;;;;;;4975492;28;20030;-48
2023/10/16 14:18:35;;;;;;;6.18;1.38;;;11.90;98.60;;;;;;4975165;28;20054;-49
2023/10/16 14:21:08;;;;;;;5.07;1.20;;;11.90;98.80;;;;;;4975181;28;20463;-48
2023/10/16 14:23:34;;;;;;;2.28;1.23;;;11.90;99.70;;;;;;4975777;28;20034;-49
2023/10/16 14:26:00;;;;;;;2.22;1.40;;;11.90;99.90;;;;;;4975675;28;20023;-48
2023/10/16 14:28:40;;;;;;;6.07;1.80;;;11.90;99.90;;;;;;4976210;28;20058;-47
2023/10/16 14:31:09;;;;;;;5.45;1.83;;;11.80;99.90;;;;;;4976581;28;20019;-52
2023/10/16 14:33:39;;;;;;;2.47;1.40;;;11.80;99.90;;;;;;4976287;28;20042;-47
2023/10/16 14:36:06;;;;;;;5.55;1.23;;;11.70;99.90;;;;;;4975771;28;20105;-47
2023/10/16 14:38:33;;;;;;;4.82;1.38;;;11.60;99.90;;;;;;4976153;28;20035;-48
2023/10/16 14:41:04;;;;;;;3.17;1.30;;;11.60;99.90;;;;;;4976460;28;20077;-48
2023/10/16 14:43:30;;;;;;;2.40;1.17;;;11.60;99.90;;;;;;4975621;28;20038;-46
2023/10/16 14:45:57;;;;;;;6.68;1.30;;;11.60;99.90;;;;;;4975629;28;20058;-49
2023/10/16 14:48:23;;;;;;;2.00;1.30;;;11.60;99.90;;;;;;4975984;28;20360;-47
2023/10/16 14:50:53;;;;;;;2.35;1.45;;;11.60;99.90;;;;;;4976098;28;20035;-48
2023/10/16 14:53:20;;;;;;;5.65;1.55;;;11.60;99.90;;;;;;4975786;28;20037;-49
2023/10/16 14:55:49;;;;;;;3.58;1.27;;;11.60;99.90;;;;;;4975491;28;20101;-47
2023/10/16 14:58:16;;;;;;;3.55;1.20;;;11.60;99.90;;;;;;4975337;28;20027;-48
2023/10/16 15:00:42;;;;;;;2.90;1.40;;;11.60;99.90;;;;;;4975941;28;20030;-48
2023/10/16 15:03:10;;;;;;;2.38;1.25;;;11.60;99.90;;;;;;4976042;28;20023;-47
2023/10/16 15:05:40;;;;;;;6.32;1.08;;;11.60;99.90;;;;;;4976459;28;20029;-47
2023/10/16 15:08:07;;;;;;;1.55;1.17;;;11.60;99.90;;;;;;4974821;28;20027;-50